Chiricana — 3EKU3 — position and weather

sailwx.info

Track history (hours):
 
Tides and Currents Weather Stations Pressure Air Temp Water Temp Dewpoint Dewpoint Depression Visibility Wind Speed Wind Dir Waves Ship Positions

Chiricana

Last reported at 2016-May-25 06:33 UTC. Time now 2016-May-27 00:24 UTC.
Position N 36°15' W 026°09'.

Length 300 m; draft 12.5 m.

Type: Ship (hazmat cat A). MMSI: 372829000.

Date/timePositionNaut miles runAvg speedWind from/ knotsBaromVisibWave heightAir tempDewpointWater temp
2016-May-25 06:33N 36°15' W 026°09'1818.0
2016-May-25 05:33N 36°15' W 025°46'1817.9
2016-May-25 04:34N 36°14' W 025°24'1818.1
2016-May-25 03:34N 36°14' W 025°02'1918.5
2016-May-25 02:33N 36°14' W 024°39'1918.8
2016-May-25 01:34N 36°14' W 024°16'1919.0
2016-May-25 00:33N 36°13' W 023°52'68018.4
2016-May-23 11:33N 36°01' W 009°51'1918.8
2016-May-23 10:34N 36°01' W 009°28'1918.6
2016-May-23 09:34N 36°01' W 009°05'1918.8
2016-May-23 08:33N 36°00' W 008°41'1918.9
2016-May-23 07:34N 36°00' W 008°18'1919.1
2016-May-23 06:34N 35°59' W 007°54'1919.2
2016-May-23 05:33N 35°59' W 007°31'1919.2
2016-May-23 04:34N 35°59' W 007°07'1919.2
2016-May-23 03:33N 35°59' W 006°43'5718.8
2016-May-23 00:33N 35°58' W 005°33'1616.2
2016-May-22 23:34N 36°02' W 005°14'21818.1
2016-May-22 11:31N 36°37' W 000°47'1818.3
2016-May-22 10:33N 36°40' W 000°25'1919.1
2016-May-22 09:33N 36°43' W 000°01'1918.8
2016-May-22 08:33N 36°46' E 000°22'1918.9
2016-May-22 07:33N 36°48' E 000°45'2318.6
2016-May-22 06:20N 36°52' E 001°13'1418.1
2016-May-22 05:32N 36°54' E 001°31'1717.4
2016-May-22 04:33N 36°57' E 001°52'1918.5
2016-May-22 03:33N 37°00' E 002°15'1918.6
2016-May-22 02:33N 37°02' E 002°38'1918.7
2016-May-22 01:33N 37°05' E 003°02'1818.5
2016-May-22 00:34N 37°09' E 003°24'2018.5
2016-May-21 23:29N 37°11' E 003°49'1818.9
2016-May-21 22:34N 37°14' E 004°10'8219.0
2016-May-21 18:15N 37°26' E 005°52'3218.8
2016-May-21 16:33N 37°32' E 006°32'1918.8
2016-May-21 15:34N 37°34' E 006°55'3718.5
2016-May-21 13:33N 37°38' E 007°42'1919.1
2016-May-21 12:34N 37°39' E 008°05'9918.9
2016-May-21 07:20N 37°40' E 010°11'18017.8
2016-May-20 21:12N 36°39' E 013°43'1217.9
2016-May-20 20:33N 36°34' E 013°56'1818.0
2016-May-20 19:34N 36°27' E 014°16'1818.1
2016-May-20 18:34N 36°20' E 014°37'1918.3
2016-May-20 17:33N 36°14' E 014°59'36019.0
2016-May-19 22:33N 34°27' E 022°00'7819.3
2016-May-19 18:31N 34°04' E 023°30'  
Track history (hours):
 
Tides and Currents Weather Stations Pressure Air Temp Water Temp Dewpoint Dewpoint Depression Visibility Wind Speed Wind Dir Waves Ship Positions

Chiricana

Last reported at 2016-May-25 06:33 UTC. Time now 2016-May-27 00:24 UTC.
Position N 36°15' W 026°09'.

Length 300 m; draft 12.5 m.

Type: Ship (hazmat cat A). MMSI: 372829000.

Date/timePositionNaut miles runAvg speedWind from/ knotsBaromVisibWave heightAir tempDewpointWater temp
2016-May-25 06:33N 36°15' W 026°09'1818.0
2016-May-25 05:33N 36°15' W 025°46'1817.9
2016-May-25 04:34N 36°14' W 025°24'1818.1
2016-May-25 03:34N 36°14' W 025°02'1918.5
2016-May-25 02:33N 36°14' W 024°39'1918.8
2016-May-25 01:34N 36°14' W 024°16'1919.0
2016-May-25 00:33N 36°13' W 023°52'68018.4
2016-May-23 11:33N 36°01' W 009°51'1918.8
2016-May-23 10:34N 36°01' W 009°28'1918.6
2016-May-23 09:34N 36°01' W 009°05'1918.8
2016-May-23 08:33N 36°00' W 008°41'1918.9
2016-May-23 07:34N 36°00' W 008°18'1919.1
2016-May-23 06:34N 35°59' W 007°54'1919.2
2016-May-23 05:33N 35°59' W 007°31'1919.2
2016-May-23 04:34N 35°59' W 007°07'1919.2
2016-May-23 03:33N 35°59' W 006°43'5718.8
2016-May-23 00:33N 35°58' W 005°33'1616.2
2016-May-22 23:34N 36°02' W 005°14'21818.1
2016-May-22 11:31N 36°37' W 000°47'1818.3
2016-May-22 10:33N 36°40' W 000°25'1919.1
2016-May-22 09:33N 36°43' W 000°01'1918.8
2016-May-22 08:33N 36°46' E 000°22'1918.9
2016-May-22 07:33N 36°48' E 000°45'2318.6
2016-May-22 06:20N 36°52' E 001°13'1418.1
2016-May-22 05:32N 36°54' E 001°31'1717.4
2016-May-22 04:33N 36°57' E 001°52'1918.5
2016-May-22 03:33N 37°00' E 002°15'1918.6
2016-May-22 02:33N 37°02' E 002°38'1918.7
2016-May-22 01:33N 37°05' E 003°02'1818.5
2016-May-22 00:34N 37°09' E 003°24'2018.5
2016-May-21 23:29N 37°11' E 003°49'1818.9
2016-May-21 22:34N 37°14' E 004°10'8219.0
2016-May-21 18:15N 37°26' E 005°52'3218.8
2016-May-21 16:33N 37°32' E 006°32'1918.8
2016-May-21 15:34N 37°34' E 006°55'3718.5
2016-May-21 13:33N 37°38' E 007°42'1919.1
2016-May-21 12:34N 37°39' E 008°05'9918.9
2016-May-21 07:20N 37°40' E 010°11'18017.8
2016-May-20 21:12N 36°39' E 013°43'1217.9
2016-May-20 20:33N 36°34' E 013°56'1818.0
2016-May-20 19:34N 36°27' E 014°16'1818.1
2016-May-20 18:34N 36°20' E 014°37'1918.3
2016-May-20 17:33N 36°14' E 014°59'36019.0
2016-May-19 22:33N 34°27' E 022°00'7819.3
2016-May-19 18:31N 34°04' E 023°30'  

Dump ship's entire track history